Warning: Javascript must be enabled to use all the features on this page!


Page Loading - Please Wait...

Click to hideNews Bulletins

Streamflow Measurements for the Nation


USGS 02290878 BROAD RIVER NEAR THE CUTOFF, FL


Monroe County, Florida
Hydrologic Unit Code 03090202
Latitude  25°30'05", Longitude  81°04'37" NAD83
Output formats
HTML table with channel data
HTML table without channel data
Tab-separated data with channel data
Tab-separated data without channel data
Graph of data
Reselect output format
Meas.
Number
  Date       Time Time
Datum
Measurement
Used?
  Who Measuring
Agency
Stream
flow
(ft3/s)
Gage
Height
(ft)
GH
Change
(ft)
Meas.
Duration
(hr)
Meas.
Rated
  Control Flow
Adjust.
Code
 
6132020-12-16 10:58:17ESTYesJGW/RDHUSGS4580-0.33-0.010.26Good NONE
6122020-12-16 10:29:33ESTYesJGW/RDHUSGS4660-0.29-0.020.25Good NONE
6112020-12-16 10:01:50ESTYesJGW/RDHUSGS4660-0.24-0.010.21Good NONE
6102020-10-14 11:53:31EDTYesJGW/RDHUSGS-36400.730.000.20Good NONE
6092020-10-14 11:24EDTYesJGW/RDHUSGS-33000.680.040.22Good NONE
6082020-10-14 10:56:54EDTYesJGW/RDHUSGS-28700.610.040.21Good NONE
6072020-10-14 10:26:57EDTYesJGW/RDHUSGS-20300.530.040.22Good NONE
6062020-09-04 13:43:41EDTYesJGW/RDHUSGS-27000.130.050.29Good NONE
6052020-09-04 13:00:33EDTYesJGW/RDHUSGS-982-0.100.090.21Poor NONE
6042020-09-04 12:47:51EDTYesJGW/RDHUSGS-194-0.190.060.21Poor NONE
6032020-09-04 12:19:28EDTYesJGW/RDHUSGS1730-0.400.040.10Poor NONE
6022020-09-04 12:13:20EDTYesJGW/RDHUSGS2050-0.440.050.10Poor NONE
6012020-09-04 12:07EDTYesJGW/RDHUSGS2350-0.480.030.11Poor NONE
6002020-09-04 11:27:59EDTYesJGW/RDHUSGS3650-0.640.000.29Good NONE
5992020-06-10 11:49EDTYesRDH/JGWUSGS2850 Good NONE
5982020-06-10 11:14:40EDTYesRDH/JGWUSGS2810 Good NONE
5972020-04-22 13:51:02EDTYesJGW/RDHUSGS-38800.270.070.33Good NONE
5962020-04-22 13:04:45EDTYesJGW/RDHUSGS-33800.120.040.28Good NONE
5952020-02-06 15:36:04ESTYesJGW/RDHUSGS977-0.270.020.21Poor NONE
5942020-02-06 15:12:57ESTYesJGW/RDHUSGS334-0.220.040.21Poor NONE
5932020-02-06 14:47:21ESTYesJGW/RDHUSGS-1090-0.08-0.090.24Poor NONE
5922020-02-06 14:22:55ESTYesJGW/RDHUSGS-1570-0.02-0.020.21Poor NONE
5912019-12-04 15:42:30ESTYesJGW/RDHUSGS2730-0.75 Good NONE
5902019-12-04 15:23:02ESTYesJGW/RDHUSGS2920-0.75 Good NONE
5892019-10-08 14:19:56EDTYesRMC/JGWUSGS-14900.92 Poor NONE
5882019-10-08 14:11:28EDTYesRMC/JGWUSGS-17100.93 Poor NONE
5872019-10-08 13:59:46EDTYesRMC/JGWUSGS-20600.95 Poor NONE
5862019-10-08 13:32:12EDTYesRMC/JGWUSGS-29600.99 Poor NONE
5852019-08-13 13:58:49EDTYesRMC/JGWUSGS-42400.67 Good NONE
5842019-08-13 13:28:54EDTYesRMC/JGWUSGS-43100.64 Good NONE
5832019-08-13 12:56:54EDTYesRMC/RDHUSGS-42800.58 Good NONE
5822019-06-20 13:12:45EDTYesRMC/DMSUSGS-16900.06 Poor NONE
5812019-06-20 13:04:29EDTYesRMC/DMSUSGS-12500.02 Poor NONE
5802019-06-20 12:37:03EDTYesRMC/DMSUSGS701-0.14 Poor NONE
5792019-06-20 12:28:42EDTYesRMC/DMSUSGS1320-0.21 Poor NONE
5782019-06-20 12:13:36EDTYesRMC/DMSUSGS2190-0.32 Poor NONE
5772019-06-20 12:04:02EDTYesRMC/DMSUSGS2500-0.35 Poor NONE
5762019-04-25 15:18EDTYesRMC/JGWUSGS-2030-0.36 Fair NONE
5752019-04-25 14:55:33EDTYesRMC/JGWUSGS-1250-0.41 Poor NONE
5742019-04-25 14:48:23EDTYesRMC/JGWUSGS-885-0.40 Poor NONE
5732019-04-25 14:41:33EDTYesRMC/JGWUSGS-340-0.43 Poor NONE
5722019-04-25 14:34:01EDTYesRMC/JGWUSGS128-0.51 Poor NONE
5712019-02-13 10:56:30ESTYesRMC/JGWUSGS2440-0.56 Good NONE
5702019-02-13 10:25:35ESTYesRMC/JGWUSGS1710-0.47 Poor NONE
5692019-02-13 09:54:25ESTYesRMC/JGWUSGS1650-0.45 Poor NONE
5682019-02-13 09:45:31ESTYesRMC/JGWUSGS1870-0.44 Poor NONE
5672019-02-13 09:21:11ESTYesRMC/JGWUSGS1470-0.44 Poor NONE
5662019-02-13 09:11:59ESTYesRMC/JGWUSGS918-0.38 Poor NONE
5652019-02-13 09:00ESTYesRMC/JGWUSGS393-0.26 Poor NONE
5642018-12-13 13:50:28ESTYesRMC/JGWUSGS2080-1.28 Poor NONE
5632018-12-13 13:24:15ESTYesRMC/JGWUSGS2570-1.34 Good NONE
5622018-12-13 12:54:31ESTYesRMC/JGWUSGS2820-1.33 Good NONE
5612018-11-06 10:34:43ESTYesRMC/JGWUSGS-2780-0.23 Good NONE
5602018-11-06 10:11:31ESTYesRMC/JGWUSGS-1680-0.38 Fair NONE
5592018-11-06 10:01:23ESTYesRMC/JGWUSGS-701-0.46 Poor NONE
5582018-11-06 09:52:24ESTYesRMC/JGWUSGS360-0.56 Poor NONE
5572018-11-06 09:43:43ESTYesRMC/JGWUSGS1160-0.66 Poor NONE
5562018-08-15 15:32:49EDTYesRMC/RDHUSGS-2400-0.28 Fair NONE
5552018-08-15 15:13:04EDTYesRMC/RDHUSGS-2000-0.37 Poor NONE
5542018-08-15 14:56:21EDTYesRMC/RDHUSGS-671-0.47 Poor NONE
5532018-08-15 14:49:44EDTYesRMC/RDHUSGS-62.0-0.52 Poor NONE
5522018-08-15 14:23:55EDTYesRMC/RDHUSGS1630-0.75 Poor NONE
5512018-06-28 14:41:15EDTYesRMC/RDHUSGS-43300.43 Good NONE
5502018-06-28 14:10:57EDTYesRMC/RDHUSGS-43500.36 Good NONE
5492018-06-28 13:38:39EDTYesRMC/RDHUSGS-43200.27 Good NONE
5482018-04-24 15:00:40EDTYesRMC/RDHUSGS2420-0.44 Fair NONE
5472018-04-24 14:33:15EDTYesRMC/RDHUSGS2100-0.38 Fair NONE
5462018-04-24 14:21:01EDTYesRMC/RDHUSGS1770-0.35 Poor NONE
5452018-02-21 10:43:40ESTYesRMC/RDHUSGS3000-1.07 Good NONE
5442018-02-21 10:12:46ESTYesRMC/RDHUSGS2930-0.97 Good NONE
5432017-12-20 14:35:46ESTYesRMC/RHUSGS-36100.05 Good NONE
5422017-12-20 13:53:11ESTYesRMC/RHUSGS-2980-0.11 Good NONE
5412017-10-25 11:51:20EDTYesRMC/CTUSGS47200.19 Good NONE
5402017-10-25 11:10:55EDTYesRMC/CTUSGS46300.27 Good NONE
5392017-08-16 11:19:33EDTYesRMC/RDHUSGS-1150.39 Poor NONE
5382017-08-16 11:08:13EDTYesRMC/RDHUSGS-7440.43 Poor NONE
5372017-08-16 10:55:21EDTYesRMC/RDHUSGS-14400.47 Poor NONE
5362017-08-16 10:43:38EDTYesRMC/RDHUSGS-21000.51 Poor NONE
5352017-08-16 10:10:33EDTYesRMC/RDHUSGS-29400.56 Fair NONE
5342017-08-16 09:47:44EDTYesRMC/RDHUSGS-31700.56 Good NONE
5332017-08-16 09:11:04EDTYesRMC/RDHUSGS-33200.53 Good NONE
5322017-06-13 15:04:05EDTYesRMC/RHUSGS-36000.150.020.20GoodUnspecifedNONE
5312017-06-13 14:39:30EDTYesRMC/RHUSGS-32300.070.040.30FairUnspecifedNONE
5302017-06-13 14:04:23EDTYesRMC/RHUSGS-2580-0.090.030.20GoodUnspecifedNONE
5292017-04-19 15:42:35EDTYesRMC/RHUSGS888-0.80 Poor NONE
5282017-04-19 15:36:04EDTYesRMC/RHUSGS1130-0.81 Poor NONE
5272017-04-19 15:09:34EDTYesRMC/RHUSGS1550-0.87 Poor NONE
5262017-04-19 14:42:17EDTYesRMC/RHUSGS1710-0.84 Poor NONE
5252017-02-07 15:17:51ESTYesRDH/RMCUSGS2330-0.84 Fair NONE
5242017-02-07 14:40:25ESTYesRDH/RMCUSGS1680-0.68 Fair NONE
5232016-12-21 14:35:59ESTYesRMC/RHUSGS2610-1.23 Good NONE
5222016-12-21 13:47:32ESTYesRMC/RHUSGS2710-1.14 Good NONE
5212016-10-20 10:55:19EDTYesRMC/RDHUSGS42100.05 Good NONE
5202016-10-20 10:24:30EDTYesRMC/RDHUSGS41800.14 Good NONE
5192016-10-20 09:52:50EDTYesRMC/RDHUSGS38100.24 Good NONE
5182016-09-01 13:07:09EDTYesRMC/RHUSGS-38200.64 Poor NONE
5172016-09-01 12:50:19EDTYesRMC/RHUSGS-35900.62 Poor NONE
5162016-09-01 12:21:38EDTYesRMC/RHUSGS-32300.56 Poor NONE
5152016-09-01 12:15:34EDTYesRMC/RHUSGS-30700.56 Poor NONE
5142016-06-14 13:51:11EDTYesRMC/TMKUSGS1910-0.06 Poor NONE
5132016-06-14 13:44:11EDTYesRMC/TMKUSGS1600-0.05 Poor NONE
5122016-06-14 13:24:13EDTYesRMC/TMKUSGS7900.07 Poor NONE
5112016-06-14 13:17:26EDTYesRMC/TMKUSGS5950.09 Poor NONE
5102016-06-14 13:12:10EDTYesRMC/TMKUSGS3970.09 Poor NONE
5092016-06-14 13:08:56EDTYesRMC/TMKUSGS2300.10 Poor NONE
5082016-06-14 13:04:55EDTYesRMC/TMKUSGS25.80.10 Poor NONE
5072016-06-14 12:59:43EDTYesRMC/TMKUSGS-3200.11 Poor NONE
5062016-06-14 12:40:52EDTYesRMC/TMKUSGS-14600.22 Poor NONE
5052016-06-14 12:33:14EDTYesRMC/TMKUSGS-17200.25 Poor NONE
5042016-06-14 12:12:27EDTYesRMC/TMKUSGS-21100.28 Poor NONE
5032016-04-20 16:28:32EDTYesRMC/TMKUSGS1350-0.07 Poor NONE
5022016-04-20 16:22:21EDTYesRMC/TMKUSGS759-0.01 Poor NONE
5012016-04-20 16:10:42EDTYesRMC/TMKUSGS-3930.10 Poor NONE
5002016-04-20 16:04:20EDTYesRMC/TMKUSGS-9310.16 Poor NONE
4992016-04-20 15:58:21EDTYesRMC/TMKUSGS-13600.20 Poor NONE
4982016-04-20 15:36:36EDTYesRMC/TMKUSGS-26700.32 Poor NONE
4972016-04-20 15:28:01EDTYesRMC/TMKUSGS-30600.33 Poor NONE
4962016-02-10 10:26:29ESTYesRMC/TMKUSGS4560-0.27 Excellent NONE
4952016-02-10 09:56:53ESTYesRMC/TMKUSGS4530-0.21 Excellent NONE
4942015-12-17 15:19:30ESTYesRMC/TMKUSGS-12100.05 Poor NONE
4932015-12-17 15:03:11ESTYesRMC/TMKUSGS53.6-0.07 Poor NONE
4922015-12-17 14:55:58ESTYesRMC/TMKUSGS461-0.12 Good NONE
4912015-12-17 14:31:19ESTYesRMC/TMKUSGS1510-0.25 Poor NONE
4902015-12-17 14:22:48ESTYesRMC/TMKUSGS1930-0.30 Poor NONE
4892015-10-13 13:29:49EDTYesRMC/DSUSGS-33300.79 Fair NONE
4882015-10-13 12:51:05EDTYesRMC/DSUSGS-25500.74 Fair NONE
4872015-10-13 12:39:29EDTYesRMC/DSUSGS-21200.72 Fair NONE
4862015-10-13 12:21:14EDTNo
4852015-10-13 12:12:29EDTNo
4842015-10-13 12:03:38EDTNo
4832015-10-13 11:52:44EDTNo
4822015-08-11 15:10:15EDTYesRMC/TMKUSGS-1350.31 Poor NONE
4812015-08-11 15:06:45EDTYesRMC/TMKUSGS-4370.33 Poor NONE
4802015-08-11 15:03:24EDTYesRMC/TMKUSGS-7600.35 Poor NONE
4792015-08-11 14:59:54EDTYesRMC/TMKUSGS-9660.38 Poor NONE
4782015-08-11 14:56:04EDTYesRMC/TMKUSGS-13200.41 Poor NONE
4772015-08-11 14:52:07EDTYesRMC/TMKUSGS-16200.44 Poor NONE
4762015-08-11 14:30:26EDTYesRMC/TMKUSGS-24800.53 Poor NONE
4752015-08-11 14:21:08EDTYesRMC/TMKUSGS-28700.57 Poor NONE
4742015-08-11 13:49:16EDTYesRMC/TMKUSGS-39600.60 Poor NONE
4732015-08-11 13:39:28EDTYesRMC/TMKUSGS-40300.59 Poor NONE
4722015-08-11 13:10:23EDTYesRMC/TMKUSGS-42500.57 Poor NONE
4712015-08-11 13:01:33EDTYesRMC/TMKUSGS-42700.56 Poor NONE
4702015-08-11 12:26:45EDTNo
4692015-08-11 11:44:26EDTNo
4682015-06-24 15:17:47EDTYesRMC/TMKUSGS2440-1.09 Fair NONE
4672015-06-24 14:54:25EDTYesRMC/TMKUSGS2660-1.04 Fair NONE
4662015-06-24 14:25:46EDTYesRMC/TMKUSGS2710-0.98 Fair NONE
4652015-04-15 15:02:39EDTYesRMC/TMKUSGS382-0.25 Good NONE
4642015-04-15 14:53:27EDTYesRMC/TMKUSGS-147-0.20 Good NONE
4632015-04-15 14:43:40EDTYesRMC/TMKUSGS-590-0.14 Good NONE
4622015-04-15 14:29:44EDTYesRMC/TMKUSGS-1240-0.09 Good NONE
4612015-04-15 14:07:07EDTYesRMC/TMKUSGS-24800.02 Good NONE
4602015-04-15 13:58:10EDTYesRMC/TMKUSGS-28600.05 Good NONE
4592015-01-22 13:05:31ESTYesTMK/RCUSGS-3120-0.22 Fair NONE
4582015-01-22 12:45:10ESTYesTMK/RCUSGS-1500-0.32 Fair NONE
4572015-01-22 12:39:18ESTYesTMK/RCUSGS-720-0.37 Poor NONE
4562015-01-22 12:35:03ESTYesTMK/RCUSGS-7.66-0.42 Poor NONE
4552015-01-22 12:19:39ESTYesTMK/RCUSGS1800-0.62 Fair NONE
4542015-01-22 12:11:40ESTYesTMK/RCUSGS2340-0.68 Fair NONE
4532014-12-05 10:35:02ESTYesTMK/RCUSGS-1970-0.15 Poor NONE
4522014-12-05 10:29:02ESTYesTMK/RCUSGS-1630-0.18 Poor NONE
4512014-12-05 10:24:04ESTYesTMK/RCUSGS-1210-0.21 Poor NONE
4502014-12-05 10:20:09ESTYesTMK/RCUSGS-812-0.23 Poor NONE
4492014-12-05 10:16:40ESTYesTMK/RCUSGS-406-0.27 Poor NONE
4482014-12-05 10:13:05ESTYesTMK/RCUSGS-75.2-0.30 Poor NONE
4472014-12-05 10:09:32ESTYesTMK/RCUSGS317-0.33 Poor NONE
4462014-12-05 10:05:33ESTYesTMK/RCUSGS759-0.38 Poor NONE
4452014-12-05 10:01:22ESTYesTMK/RCUSGS1120-0.43 Poor NONE
4442014-12-05 09:46:41ESTYesTMK/RCUSGS2250-0.56 Fair NONE
4432014-12-05 09:38:48ESTYesTMK/RCUSGS2730-0.63 Fair NONE
4422014-10-22 13:54:55EDTYesTMK/RCUSGS-43100.52 Fair NONE
4412014-10-22 13:28:36EDTYesTMK/RCUSGS-41900.46 Fair NONE
4402014-10-22 12:57:34EDTYesTMK/RCUSGS-41800.38 Fair NONE
4392014-09-03 11:46:48EDTYesTMK/RCUSGS26600.10 Fair NONE
4382014-09-03 11:25:49EDTYesTMK/RCUSGS20400.18 Fair NONE
4372014-09-03 11:09:41EDTYesTMK/RCUSGS13300.25 Poor NONE
4362014-09-03 11:05:49EDTYesTMK/RCUSGS11100.27 Poor NONE
4352014-09-03 10:59:51EDTYesTMK/RCUSGS8110.31 Poor NONE
4342014-09-03 10:55:48EDTYesTMK/RCUSGS6530.31 Poor NONE
4332014-09-03 10:51:58EDTYesTMK/RCUSGS4150.32 Poor NONE
4322014-09-03 10:48:02EDTYesTMK/RCUSGS75.80.34 Poor NONE
4312014-09-03 10:43:47EDTYesTMK/RCUSGS-1650.37 Poor NONE
4302014-09-03 10:39:28EDTYesTMK/RCUSGS-5880.39 Poor NONE
4292014-09-03 10:30:50EDTYesTMK/RCUSGS-11000.43 Poor NONE
4282014-09-03 10:26:53EDTYesTMK/RCUSGS-14800.46 Poor NONE
4272014-09-03 10:08:52EDTYesTMK/RCUSGS-24200.52 Fair NONE
4262014-09-03 09:49:18EDTYesTMK/RCUSGS-31600.55 Fair NONE
4252014-07-23 15:10:37EDTYesTMK/RCUSGS20100.04 Good NONE
4242014-07-23 14:52EDTYesTMK/RCUSGS11800.07 Poor NONE
4232014-07-23 14:47:52EDTYesTMK/RCUSGS6780.10 Poor NONE
4222014-07-23 14:43:39EDTYesTMK/RCUSGS1270.13 Poor NONE
4212014-07-23 14:39:30EDTYesTMK/RCUSGS-3710.18 Poor NONE
4202014-07-23 14:22:47EDTYesTMK/RCUSGS-18600.33 Good NONE
4192014-07-23 14:13:43EDTYesTMK/RCUSGS-22700.36 Good NONE
4182014-07-23 13:54:06EDTYesTMK/RCUSGS-29500.39 Good NONE
4172014-07-23 13:20:11EDTYesTMK/RCUSGS-38400.44 Good NONE
4162014-06-03 10:35:05EDTYesTMK/RCUSGS2510-0.69 Good NONE
4152014-06-03 09:50EDTYesTMK/RCUSGS2110-0.57 Good NONE
4142014-04-09 11:23:08EDTYesTMK/RCUSGS-27500.15 Poor NONE
4132014-04-09 11:19:12EDTYesTMK/RCUSGS-29400.14 Poor NONE
4122014-04-09 10:45:06EDTYesTMK/RCUSGS-33600.10 Poor NONE
4112014-04-09 10:41:28EDTYesTMK/RCUSGS-33000.10 Poor NONE
4102014-04-09 10:23:14EDTYesTMK/RCUSGS-33100.06 Poor NONE
4092014-04-09 10:19:23EDTYesTMK/RCUSGS-34200.04 Poor NONE
4082014-02-04 15:53:01ESTYesTMK/RCUSGS-4140-0.01 Good NONE
4072014-02-04 14:35:59ESTYesTMK/RCUSGS-3090-0.33 Good NONE
4062014-02-04 14:31:08ESTYesTMK/RCUSGS-2970-0.35 Good NONE
4052014-02-04 13:47:47ESTYesTMK/RCUSGS-793-0.66 Good NONE
4042014-02-04 13:43:45ESTYesTMK/RCUSGS-362-0.68 Good NONE
4032014-02-04 13:39:32ESTYesTMK/RCUSGS77.7-0.74 Good NONE
4022014-02-04 13:35:23ESTYesTMK/RCUSGS470-0.76 Good NONE
4012014-02-04 13:30:32ESTYesTMK/RCUSGS813-0.81 Good NONE
4002014-02-04 13:25:30ESTYesTMK/RCUSGS1160-0.86 Good NONE
3992014-02-04 12:03ESTYesTMK/RCUSGS3340-1.04 Good NONE
3982014-02-04 11:19:33ESTYesTMK/RCUSGS3460-0.95 Good NONE
3972013-12-12 10:54:20ESTYesTMK/RCUSGS-3100-0.02 Fair NONE
3962013-12-12 10:37:19ESTYesTMK/RCUSGS-3250-0.05 Fair NONE
3952013-12-12 10:06:12ESTYesTMK/RCUSGS-3080-0.14 Fair NONE
3942013-12-12 09:50:41ESTYesTMK/RCUSGS-2940-0.19 Fair NONE
3932013-10-23 11:57:54EDTYesTMK/MBUSGS4240-0.23 Fair NONE
3922013-10-23 11:32:38EDTYesTMK/MBUSGS4190-0.18 Fair NONE
3912013-10-23 11:02:49EDTYesTMK/MBUSGS4290-0.11 Fair NONE
3902013-08-14 11:39:32EDTYesTMK/MBUSGS3140-0.28 Fair NONE
3892013-08-14 11:29:52EDTYesTMK/MBUSGS3010-0.25 Fair NONE
3882013-08-14 11:04:06EDTYesTMK/MBUSGS2660-0.18 Fair NONE
3872013-08-14 10:39:34EDTYesTMK/MBUSGS2260-0.12 Fair NONE
3862013-08-14 10:35:02EDTYesTMK/MBUSGS2140-0.11 Fair NONE
3852013-08-14 10:13:25EDTYesTMK/MBUSGS12000.00 Fair NONE
3842013-08-14 10:09:29EDTYesTMK/MBUSGS10200.02 Fair NONE
3832013-08-14 09:54:33EDTYesTMK/MBUSGS3680.08 Fair NONE
3822013-08-14 09:50:03EDTYesTMK/MBUSGS69.90.12 Fair NONE
3812013-08-14 09:40:52EDTYesTMK/MBUSGS-2180.14 Fair NONE
3802013-08-14 09:36:34EDTYesTMK/MBUSGS-4980.16 Fair NONE
3792013-06-13 11:22:43EDTYesTMK/MBUSGS3650-0.50 Fair NONE
3782013-06-13 11:00:33EDTYesTMK/MBUSGS3600-0.49 Fair NONE
3772013-06-13 10:25:19EDTYesTMK/MBUSGS3490-0.41 Fair NONE
3762013-05-02 10:34:38EDTYesTMK/MCBUSGS-9840.00 Fair NONE
3752013-05-02 10:30:10EDTYesTMK/MCBUSGS-1070-0.01 Fair NONE
3742013-05-02 10:25:30EDTYesTMK/MCBUSGS-12700.00 Fair NONE
3732013-05-02 10:21:10EDTYesTMK/MCBUSGS-14800.03 Fair NONE
3722013-05-02 09:57:57EDTYesTMK/MCBUSGS-25200.09 Fair NONE
3712013-05-02 09:53:42EDTYesTMK/MCBUSGS-26500.11 Fair NONE
3702013-05-02 09:38:38EDTYesTMK/MCBUSGS-30500.12 Fair NONE
3692013-05-02 09:34:07EDTYesTMK/MCBUSGS-31500.12 Fair NONE
3682013-03-20 14:01:53EDTYesTMK/MCBUSGS1440-0.61 Fair NONE
3672013-03-20 13:23:57EDTYesTMK/MCBUSGS904-0.54 Fair NONE
3662013-03-20 13:18:59EDTYesTMK/MCBUSGS537-0.53 Fair NONE
3652013-03-20 13:13:58EDTYesTMK/MCBUSGS205-0.55 Fair NONE
3642013-03-20 13:09:04EDTYesTMK/MCBUSGS-268-0.52 Fair NONE
3632013-03-20 13:04:06EDTYesTMK/MCBUSGS-591-0.45 Fair NONE
3622013-03-20 12:59:02EDTYesTMK/MCBUSGS-657-0.42 Fair NONE
3612013-02-05 13:10:54ESTYesTMK/MBUSGS846-0.54 Fair NONE
3602013-02-05 13:07:08ESTYesTMK/MBUSGS588-0.53 Fair NONE
3592013-02-05 12:57:05ESTYesTMK/MBUSGS23.1-0.46 Fair NONE
3582013-02-05 12:52:54ESTYesTMK/MBUSGS-152-0.44 Fair NONE
3572013-02-05 12:39:49ESTYesTMK/MBUSGS-368-0.42 Fair NONE
3562013-02-05 12:36:19ESTYesTMK/MBUSGS-416-0.41 Fair NONE
3552013-02-05 12:17:36ESTYesTMK/MBUSGS-806-0.37 Fair NONE
3542013-02-05 12:13:50ESTYesTMK/MBUSGS-741-0.36 Fair NONE
3532013-02-05 11:54:08ESTYesTMK/MBUSGS-1310-0.34 Fair NONE
3522013-02-05 11:50:03ESTYesTMK/MBUSGS-1620-0.33 Fair NONE
3512013-02-05 11:35:55ESTYesTMK/MBUSGS-2160-0.30 Fair NONE
3502013-02-05 11:31:04ESTYesTMK/MBUSGS-2310-0.29 Fair NONE
3492013-02-05 11:19:44ESTYesTMK/MBUSGS-2490-0.26 Fair NONE
3482013-02-05 11:14:51ESTYesTMK/MBUSGS-2580-0.27 Fair NONE
3472012-12-06 13:02:43ESTYesTMK/MCBUSGS3370-0.76 Fair NONE
3462012-10-18 13:33:47EDTYesTMK/CTUSGS24400.08 Fair NONE
3452012-10-18 13:25:59EDTYesTMK/CTUSGS28900.03 Fair NONE
3442012-10-18 13:04:36EDTYesTMK/CTUSGS3840-0.07 Fair NONE
3432012-10-18 12:43:53EDTYesTMK/CTUSGS4260-0.12 Fair NONE
3422012-10-18 12:27:56EDTYesTMK/CTUSGS4360-0.11 Fair NONE
3412012-09-05 09:41:23EDTYesTMK/KSUSGS37200.03 Fair NONE
3402012-09-05 09:31:36EDTYesTMK/KSUSGS35700.05 Fair NONE
3392012-07-11 09:09:03EDTYesTMK/ksUSGS-20600.21 Fair NONE
3382012-07-11 09:03:31EDTYesTMK/ksUSGS-22600.22 Fair NONE
3372012-07-11 08:57:46EDTYesTMK/ksUSGS-24900.24 Fair NONE
3362012-07-11 08:52:35EDTYesTMK/ksUSGS-27000.25 Fair NONE
3352012-07-11 08:47:23EDTYesTMK/ksUSGS-28000.26 Fair NONE
3342012-07-11 08:42:22EDTYesTMK/ksUSGS-29300.26 Fair NONE
3332012-07-11 08:25:42EDTYesTMK/ksUSGS-30000.24 Fair NONE
3322012-07-11 08:19:52EDTYesTMK/ksUSGS-30200.24 Fair NONE
3312012-04-11 12:39:17EDTYesTMK/KSUSGS2650-0.67 Poor NONE
3302012-04-11 12:34:15EDTYesTMK/KSUSGS2690-0.66 Poor NONE
3292012-04-11 12:29:39EDTYesTMK/KSUSGS2630-0.66 Poor NONE
3282012-04-11 12:25:08EDTYesTMK/KSUSGS2740-0.65 Poor NONE
3272012-02-22 10:25:48ESTYesTMK/KSUSGS2740-1.31 Poor NONE
3262012-02-22 10:20ESTYesTMK/KSUSGS2890-1.33 Poor NONE
3252012-02-22 10:13:20ESTYesTMK/KSUSGS3030-1.35 Poor NONE
3242012-02-22 10:07:42ESTYesTMK/KSUSGS3110-1.35 Poor NONE
3232012-02-22 09:38:25ESTYesTMK/KSUSGS3270-1.32 Poor NONE
3222012-02-22 09:32:43ESTYesTMK/KSUSGS3290-1.31 Poor NONE
3212012-02-22 09:26:47ESTYesTMK/KSUSGS3360-1.29 Poor NONE
3202012-02-22 09:20:06ESTYesTMK/KSUSGS3250-1.27 Poor NONE
3192012-01-26 19:12:59ESTYesTKSPJNUSGS2360-0.41 Poor NONE
3182012-01-26 19:09:05ESTYesTKSPJNUSGS2330-0.40 Poor NONE
3172012-01-26 19:04:56ESTYesTKSPJNUSGS2330-0.38 Poor NONE
3162012-01-26 19:01:13ESTYesTKSPJNUSGS2200-0.36 Poor NONE
3152012-01-26 18:57:27ESTYesTKSPJNUSGS2130-0.34 Poor NONE
3142012-01-26 18:53:40ESTYesTKSPJNUSGS2100-0.32 Poor NONE
3132012-01-26 18:50:16ESTYesTKSPJNUSGS2040-0.29 Poor NONE
3122012-01-26 18:46:31ESTYesTKSPJNUSGS1820-0.27 Poor NONE
3112012-01-26 18:43ESTYesTKSPJNUSGS1780-0.25 Poor NONE
3102012-01-26 18:39:25ESTYesTKSPJNUSGS1680-0.23 Poor NONE
3092012-01-26 18:35:55ESTYesTKSPJNUSGS1490-0.21 Poor NONE
3082012-01-26 18:32:20ESTYesTKSPJNUSGS1310-0.19 Poor NONE
3072012-01-26 18:28:44ESTYesTKSPJNUSGS922-0.17 Poor NONE
3062012-01-26 18:24:57ESTYesTKSPJNUSGS588-0.15 Poor NONE
3052012-01-26 18:21:27ESTYesTKSPJNUSGS237-0.13 Poor NONE
3042012-01-26 18:18:10ESTYesTKSPJNUSGS-185-0.11 Poor NONE
3032012-01-26 18:15:01ESTYesTKSPJNUSGS-539-0.09 Poor NONE
3022012-01-26 18:12:04ESTYesTKSPJNUSGS-922-0.06 Poor NONE
3012012-01-26 18:06:18ESTYesTKSPJNUSGS-1580-0.01 Poor NONE
3002012-01-26 18:01:51ESTYesTKSPJNUSGS-21100.03 Poor NONE
2992012-01-26 17:57:58ESTYesTKSPJNUSGS-24500.06 Poor NONE
2982012-01-26 17:53:26ESTYesTKSPJNUSGS-27400.09 Poor NONE
2972012-01-26 17:48:17ESTYesTKSPJNUSGS-29700.11 Poor NONE
2962012-01-26 17:43:27ESTYesTKSPJNUSGS-30800.13 Poor NONE
2952012-01-26 17:38:40ESTYesTKSPJNUSGS-33000.14 Poor NONE
2942012-01-26 17:33:33ESTYesTKSPJNUSGS-32000.14 Poor NONE
2932012-01-26 17:27:41ESTYesTKSPJNUSGS-36100.15 Poor NONE
2922012-01-26 17:22:16ESTYesTKSPJNUSGS-35900.14 Poor NONE
2912012-01-26 17:17:50ESTYesTKSPJNUSGS-36700.14 Poor NONE
2902012-01-26 17:13:21ESTYesTKSPJNUSGS-39000.14 Poor NONE
2892012-01-26 17:08:49ESTYesTKSPJNUSGS-40500.15 Poor NONE
2882012-01-26 17:04:24ESTYesTKSPJNUSGS-40800.15 Poor NONE
2872012-01-26 16:35:06ESTYesTKSPJNUSGS-45000.11 Poor NONE
2862012-01-26 16:29:45ESTYesTKSPJNUSGS-45000.08 Poor NONE
2852012-01-26 16:21:19ESTYesTKSPJNUSGS-46500.07 Poor NONE
2842012-01-26 16:16:19ESTYesTKSPJNUSGS-46800.07 Poor NONE
2832012-01-26 16:11:27ESTYesTKSPJNUSGS-44800.06 Poor NONE
2822012-01-26 16:06:43ESTYesTKSPJNUSGS-45900.05 Poor NONE
2812012-01-26 15:52:25ESTYesTKSPJNUSGS-46000.00 Poor NONE
2802012-01-26 15:47:25ESTYesTKSPJNUSGS-4550-0.01 Poor NONE
2792012-01-26 14:40:53ESTYesTKSPJNUSGS-4340-0.28 Poor NONE
2782012-01-26 14:37:13ESTYesTKSPJNUSGS-4230-0.30 Poor NONE
2772012-01-26 14:32:21ESTYesTKSPJNUSGS-4190-0.31 Poor NONE
2762012-01-26 14:27:15ESTYesTKSPJNUSGS-3780-0.33 Poor NONE
2752012-01-26 14:22:04ESTYesTKSPJNUSGS-4040-0.35 Poor NONE
2742012-01-26 14:17:29ESTYesTKSPJNUSGS-3770-0.36 Poor NONE
2732012-01-26 14:04:08ESTYesTKSPJNUSGS-3630-0.41 Poor NONE
2722012-01-26 14:00:12ESTYesTKSPJNUSGS-3710-0.43 Poor NONE
2712012-01-26 13:56:10ESTYesTKSPJNUSGS-3460-0.45 Poor NONE
2702012-01-26 13:52:06ESTYesTKSPJNUSGS-3410-0.46 Poor NONE
2692012-01-26 13:48:16ESTYesTKSPJNUSGS-3440-0.48 Poor NONE
2682012-01-26 13:44:33ESTYesTKSPJNUSGS-3320-0.50 Poor NONE
2672012-01-26 13:39:58ESTYesTKSPJNUSGS-3120-0.52 Poor NONE
2662012-01-26 13:35:02ESTYesTKSPJNUSGS-3080-0.56 Poor NONE
2652012-01-26 13:28:59ESTYesTKSPJNUSGS-2930-0.60 Poor NONE
2642012-01-26 13:25:24ESTYesTKSPJNUSGS-2880-0.63 Poor NONE
2632012-01-26 13:21:52ESTYesTKSPJNUSGS-2750-0.65 Poor NONE
2622012-01-26 13:18:28ESTYesTKSPJNUSGS-2670-0.68 Poor NONE
2612012-01-26 13:14:46ESTYesTKSPJNUSGS-2680-0.69 Poor NONE
2602012-01-26 13:11:13ESTYesTKSPJNUSGS-2350-0.73 Poor NONE
2592012-01-26 13:07:50ESTYesTKSPJNUSGS-2280-0.76 Poor NONE
2582012-01-26 13:02:37ESTYesTKSPJNUSGS-2020-0.80 Poor NONE
2572012-01-26 12:58:48ESTYesTKSPJNUSGS-1790-0.83 Poor NONE
2562012-01-26 12:52:52ESTYesTKSPJNUSGS-1280-0.86 Poor NONE
2552012-01-26 12:49:21ESTYesTKSPJNUSGS-870-0.88 Poor NONE
2542012-01-26 12:46:01ESTYesTKSPJNUSGS-472-0.89 Poor NONE
2532012-01-26 12:42:37ESTYesTKSPJNUSGS-122-0.93 Poor NONE
2522012-01-26 12:38:46ESTYesTKSPJNUSGS336-0.96 Poor NONE
2512012-01-26 12:34:57ESTYesTKSPJNUSGS767-1.00 Poor NONE
2502012-01-26 12:30:43ESTYesTKSPJNUSGS1130-1.05 Poor NONE
2492012-01-26 12:26:17ESTYesTKSPJNUSGS1500-1.09 Poor NONE
2482012-01-26 12:21:30ESTYesTKSPJNUSGS1820-1.13 Poor NONE
2472012-01-26 12:16:16ESTYesTKSPJNUSGS2080-1.19 Poor NONE
2462012-01-26 12:10:58ESTYesTKSPJNUSGS2290-1.22 Poor NONE
2452012-01-26 12:06:14ESTYesTKSPJNUSGS2510-1.24 Poor NONE
2442012-01-26 12:02:04ESTYesTKSPJNUSGS2510-1.26 Poor NONE
2432012-01-26 11:57:29ESTYesTKSPJNUSGS2790-1.28 Poor NONE
2422012-01-26 11:52:40ESTYesTKSPJNUSGS2900-1.29 Poor NONE
2412012-01-26 11:48:32ESTYesTKSPJNUSGS2970-1.30 Poor NONE
2402012-01-26 11:44:46ESTYesTKSPJNUSGS3130-1.31 Poor NONE
2392012-01-26 11:37:26ESTYesTKSPJNUSGS3230-1.30 Poor NONE
2382012-01-26 11:33:47ESTYesTKSPJNUSGS3220-1.30 Poor NONE
2372012-01-26 11:18:41ESTYesTKSPJNUSGS3370-1.27 Poor NONE
2362012-01-26 11:12:18ESTYesTKSPJNUSGS3350-1.25 Poor NONE
2352012-01-26 10:07:43ESTYesTKSPJNUSGS3430-1.11 Poor NONE
2342012-01-26 10:03:14ESTYesTKSPJNUSGS3530-1.10 Poor NONE
2332012-01-26 09:50:08ESTYesTKSPJNUSGS3410-1.05 Poor NONE
2322012-01-26 09:32:10ESTYesTKSPJNUSGS3370-1.00 Poor NONE
2312012-01-26 09:25:35ESTYesTKSPJNUSGS3400-0.97 Poor NONE
2302012-01-26 09:19:57ESTYesTKSPJNUSGS3510-0.96 Poor NONE
2292012-01-26 08:58:01ESTYesTKSPJNUSGS3300-0.90 Poor NONE
2282012-01-26 08:51:52ESTYesTKSPJNUSGS3330-0.87 Poor NONE
2272012-01-26 08:33:45ESTYesTKSPJNUSGS3400-0.80 Poor NONE
2262012-01-26 08:28:19ESTYesTKSPJNUSGS3320-0.78 Poor NONE
2252012-01-26 08:08:34ESTYesTKSPJNUSGS3280-0.72 Poor NONE
2242012-01-26 08:02:38ESTYesTKSPJNUSGS3280-0.70 Poor NONE
2232012-01-26 07:57:06ESTYesTKSPJNUSGS3310-0.68 Poor NONE
2222012-01-26 07:51:10ESTYesTKSPJNUSGS3250-0.67 Poor NONE
2212011-11-16 10:27:01ESTYesTMK/KSUSGS3460-0.48 Poor NONE
2202011-11-16 10:17:57ESTYesTMK/KSUSGS3490-0.46 Poor NONE
2192011-11-16 10:12:47ESTYesTMK/KSUSGS3380-0.44 Poor NONE
2182011-11-16 10:07:59ESTYesTMK/KSUSGS3380-0.42 Poor NONE
2172011-08-03 11:30EDTYesTMKUSGS3800-0.53 Poor NONE
2162011-08-03 11:23EDTYesTMKUSGS3780-0.52 Poor NONE
2152011-08-03 11:16EDTYesTMKUSGS3760-0.51 Poor NONE
2142011-08-03 11:10:30EDTYesTMKUSGS3830-0.49 Poor NONE
2132011-05-11 13:47EDTYesTMKUSGS2320-0.70-0.030.10Poor NONE
2122011-05-11 13:40EDTYesTMKUSGS2180-0.69-0.030.10Poor NONE
2112011-05-11 13:32EDTYesTMKUSGS2050-0.67-0.040.10Poor NONE
2102011-05-11 13:26:30EDTYesTMKUSGS1970-0.66-0.040.10Poor NONE
2092011-02-16 10:31:21ESTYesTMK/ACBUSGS-1050-1.420.280.50PoorUnspecifedNONE
2082011-02-16 10:26ESTYesTMK/ACBUSGS-702-1.470.280.50PoorUnspecifedNONE
2072011-02-16 10:20:48ESTYesTMK/ACBUSGS-70.1-1.520.280.50PoorUnspecifedNONE
2062011-02-16 10:15:27ESTYesTMK/ACBUSGS361-1.570.280.50PoorUnspecifedNONE
2052010-11-18 12:44:57ESTYesTMK/LESUSGS-34500.35 0.10PoorUnspecifedNONE
2042010-11-18 12:39:18ESTYesTMK/LESUSGS-35900.35 0.10PoorUnspecifedNONE
2032010-11-18 12:30:58ESTYesTMK/LESUSGS-35100.34 0.10PoorUnspecifedNONE
2022010-11-18 12:23:58ESTYesTMK/LESUSGS-35800.33 0.10PoorUnspecifedNONE
2012010-11-18 12:05:08ESTYesTMK/LESUSGS-37000.30 0.10PoorUnspecifedNONE
2002010-11-18 11:58:18ESTYesTMK/LESUSGS-36600.28 0.10PoorUnspecifedNONE
1992010-11-18 11:51:37ESTYesTMK/LESUSGS-36800.27 0.10PoorUnspecifedNONE
1982010-11-18 11:43:41ESTYesTMK/LESUSGS-36600.24 0.10PoorUnspecifedNONE
1972010-08-17 11:54:06EDTYesTMK/ACBUSGS26200.07 0.10PoorUnspecifedNONE
1962010-08-17 11:48:13EDTYesTMK/ACBUSGS25000.08 0.10PoorUnspecifedNONE
1952010-08-17 11:43:29EDTYesTMK/ACBUSGS23100.09 0.10Poor NONE
1942010-08-17 11:37:48EDTYesTMK/ACBUSGS20200.11 0.10PoorUnspecifedNONE
1932010-05-20 11:52:57EDTYesTMK/ACBUSGS2150-0.59 0.00PoorClearNONE
1922010-05-20 11:49:42EDTYesTMK/ACBUSGS2200-0.58 0.10PoorUnspecifedNONE
1912010-05-20 11:42:09EDTYesTMK/ACBUSGS2020-0.52 0.00PoorClearNONE
1902010-05-20 11:39:23EDTYesTMK/ACBUSGS2010-0.56 0.10PoorClearNONE
1892010-02-23 11:39:31ESTYesacb/mcbUSGS-1090-0.29 0.10PoorClearNONE
1882010-02-23 11:34:55ESTYesacb/mcbUSGS-1240-0.27 0.10PoorClearNONE
1872010-02-23 11:30:41ESTYesacb/mcbUSGS-1440-0.26 0.10PoorClearNONE
1862010-02-23 11:26:48ESTYesacb/mcbUSGS-1550-0.26 0.10PoorClearNONE
1852009-12-01 11:29:53ESTYesACB/TKUSGS-2550-0.01 UnspecifiedClearNONE
1842009-12-01 11:26:25ESTYesACB/TKUSGS-2540-0.05 UnspecifiedUnspecifedNONE
1832009-12-01 11:23:02ESTYesACB/TKUSGS-2390-0.10 PoorUnspecifedNONE
1822009-12-01 11:19:36ESTYesACB/TKUSGS-2430-0.12 UnspecifiedClearNONE
1812009-09-02 13:30EDTYesACB/AEUSGS-3740 UnspecifiedUnspecifedNONE
1802009-09-02 13:26EDTYesACB/AEUSGS-3800 UnspecifiedUnspecifedNONE
1792009-09-02 13:22EDTYesACB/AEUSGS-3860 UnspecifiedUnspecifedNONE
1782009-09-02 13:18EDTYesACB/AEUSGS-3700 UnspecifiedUnspecifedNONE
1772009-06-17 10:15EDTYesAB/AEUSGS-3640 Unspecified NONE
1762009-06-17 10:11EDTYesAB/AEUSGS-3740 Unspecified NONE
1752009-06-17 10:07EDTYesAB/AEUSGS-3780 Unspecified NONE
1742009-06-17 10:02EDTYesAB/AEUSGS-3720 Unspecified NONE
1732009-02-11 11:11ESTYesAB/MBUSGS3210 Unspecified NONE
1722009-02-11 11:08ESTYesAB/MBUSGS3100 Unspecified NONE
1712009-02-11 11:04ESTYesAB/MBUSGS3080 Unspecified NONE
1702009-02-11 11:01ESTYesAB/MBUSGS3150 Unspecified NONE
1692008-10-21 11:35EDTYesAB/AEUSGS3460 Unspecified NONE
1682008-10-21 11:27EDTYesAB/AEUSGS3340 Unspecified NONE
1672008-10-21 11:12EDTYesAB/AEUSGS3150 Unspecified NONE
1662008-10-21 11:07EDTYesAB/AEUSGS2940 Unspecified NONE
1652008-08-05 12:38EDTYesAB/AEUSGS3990 Unspecified NONE
1642008-08-05 12:32EDTYesAB/AEUSGS3900 Unspecified NONE
1632008-08-05 12:27EDTYesAB/AEUSGS3960 Unspecified NONE
1622008-08-05 12:21EDTYesAB/AEUSGS4070 Unspecified NONE
1612008-05-27 14:38EDTYesAE/MBUSGS2040 Unspecified NONE
1602008-05-27 14:06EDTYesAE/MBUSGS2200 Unspecified NONE
1592008-05-27 14:02EDTYesAE/MBUSGS2230 Unspecified NONE
1582008-05-27 13:55EDTYesAE/MBUSGS2100 Unspecified NONE
1572008-05-27 13:48EDTYesAE/MBUSGS2120 Unspecified NONE
1562008-05-27 13:41EDTYesAE/MBUSGS2070 Unspecified NONE
1552008-03-12 14:21EDTYesCT/AEUSGS-2540 Unspecified NONE
1542008-03-12 14:17EDTYesCT/AEUSGS-2490 Unspecified NONE
1532008-03-12 14:12EDTYesCT/AEUSGS-2480 Unspecified NONE
1522008-03-12 14:09EDTYesCT/AEUSGS-2350 Unspecified NONE
1512008-03-12 14:03EDTYesCT/AEUSGS-2260 Unspecified NONE
1502007-11-16 11:45ESTYesCT/AEUSGS3160 Unspecified NONE
1492007-11-16 11:38ESTYesCT/AEUSGS3270 Unspecified NONE
1482007-11-16 11:31ESTYesCT/AEUSGS3290 Unspecified NONE
1472007-11-16 11:16ESTYesCT/AEUSGS3310 Unspecified NONE
1462005-05-10 19:56EDTYeslsUSGS2970-0.36 Unspecified NONE
1452005-05-10 19:46EDTYeslsUSGS2920-0.32 Unspecified NONE
1442005-05-10 19:40EDTYeslsUSGS2930-0.30 Unspecified NONE
1432005-05-10 19:27EDTYeslsUSGS2710-0.26 Unspecified NONE
1422005-05-10 19:18EDTYeslsUSGS2620-0.22 Unspecified NONE
1412005-05-10 19:10EDTYeslsUSGS2570-0.20 Unspecified NONE
1402005-05-10 19:00EDTYeslsUSGS2340-0.17 Unspecified NONE
1392005-05-10 18:44EDTYeslsUSGS2150-0.11 Unspecified NONE
1382005-05-10 18:31EDTYeslsUSGS1920-0.04 Unspecified NONE
1372005-05-10 18:21EDTYeslsUSGS18300.01 Unspecified NONE
1362005-05-10 18:11EDTYeslsUSGS12700.06 Unspecified NONE
1352005-05-10 17:58EDTYeslsUSGS3990.14 Unspecified NONE
1342005-05-10 17:50EDTYeslsUSGS-3950.20 Unspecified NONE
1332005-05-10 17:44EDTYeslsUSGS-8920.24 Unspecified NONE
1322005-05-10 17:36EDTYeslsUSGS-14000.28 Unspecified NONE
1312005-05-10 17:29EDTYeslsUSGS-18600.34 Unspecified NONE
1302005-05-10 17:23EDTYeslsUSGS-21100.36 Unspecified NONE
1292005-05-10 17:16EDTYeslsUSGS-25800.39 Unspecified NONE
1282005-05-10 17:10EDTYeslsUSGS-28600.41 Unspecified NONE
1272005-05-10 16:43EDTYeslsUSGS-40000.47 Unspecified NONE
1262005-05-10 15:45EDTYeslsUSGS-45800.43 Unspecified NONE
1252005-05-10 15:35EDTYeslsUSGS-46800.41 Unspecified NONE
1242005-05-10 15:03EDTYeslsUSGS-46300.33 Unspecified NONE
1232005-05-10 14:42EDTYeslsUSGS-46300.27 Unspecified NONE
1222005-05-10 14:28EDTYeslsUSGS-46100.21 Unspecified NONE
1212005-05-10 14:16EDTYeslsUSGS-45600.15 Unspecified NONE
1202005-05-10 14:01EDTYeslsUSGS-44500.09 Unspecified NONE
1192005-05-10 13:46EDTYeslsUSGS-42900.01 Unspecified NONE
1182005-05-10 13:26EDTYeslsUSGS-4060-0.07 Unspecified NONE
1172005-05-10 13:12EDTYeslsUSGS-3660-0.14 Unspecified NONE
1162005-05-10 13:00EDTYeslsUSGS-3780-0.20 Unspecified NONE
1152005-05-10 12:32EDTYeslsUSGS-2980-0.30 Unspecified NONE
1142005-05-10 12:25EDTYeslsUSGS-2870-0.34 Unspecified NONE
1132005-05-10 12:16EDTYeslsUSGS-2710-0.40 Unspecified NONE
1122005-05-10 12:10EDTYeslsUSGS-2600-0.43 Unspecified NONE
1112005-05-10 12:04EDTYeslsUSGS-2340-0.46 Unspecified NONE
1102005-05-10 11:58EDTYeslsUSGS-1970-0.48 Unspecified NONE
1092005-05-10 11:51EDTYeslsUSGS-1770-0.52 Unspecified NONE
1082005-05-10 11:45EDTYeslsUSGS-1420-0.57 Unspecified NONE
1072005-05-10 11:37EDTYeslsUSGS-890-0.61 Unspecified NONE
1062005-05-10 11:26EDTYeslsUSGS-183-0.66 Unspecified NONE
1052005-05-10 11:18EDTYeslsUSGS738-0.75 Unspecified NONE
1042005-05-10 11:09EDTYeslsUSGS1300-0.81 Unspecified NONE
1032005-05-10 11:00EDTYeslsUSGS1700-0.87 Unspecified NONE
1022005-05-10 10:50EDTYeslsUSGS2020-0.90 Unspecified NONE
1012005-05-10 10:37EDTYeslsUSGS2310-0.92 Unspecified NONE
1002005-05-10 10:21EDTYeslsUSGS2510-0.93 Unspecified NONE
992005-05-10 09:52EDTYeslsUSGS2640-0.88-0.65 Unspecified NONE
982005-05-10 09:45EDTYeslsUSGS2670-0.87-0.64 Unspecified NONE
972005-03-30 14:17ESTYeslsUSGS-3520-0.29 Unspecified NONE
962005-03-30 14:12ESTYeslsUSGS-3400-0.31 Unspecified NONE
952005-03-30 14:05ESTYeslsUSGS-3320-0.34 Unspecified NONE
942005-03-30 13:59ESTYeslsUSGS-3280-0.37 Unspecified NONE
932005-03-30 13:52ESTYeslsUSGS-3070-0.39 Unspecified NONE
922005-03-30 13:46ESTYeslsUSGS-2990-0.40 Unspecified NONE
912002-10-10 10:56EDTYesLSUSGS4270-0.29 Unspecified NONE
902002-10-10 10:51EDTYesLSUSGS4200-0.27 Unspecified NONE
892002-10-10 10:45EDTYesLSUSGS4280-0.25 Unspecified NONE
882002-10-10 10:35EDTYesLSUSGS4170-0.22 Unspecified NONE
872002-10-10 10:30EDTYesLSUSGS4220-0.21 Unspecified NONE
862002-10-10 10:12EDTYesLSUSGS3840-0.15 Unspecified NONE
852002-10-10 10:07EDTYesLSUSGS4120-0.14 Unspecified NONE
842002-10-10 10:01EDTYesLSUSGS4090-0.13 Unspecified NONE
832002-10-10 09:44EDTYesLSUSGS3990-0.09 Unspecified NONE
822002-10-10 09:39EDTYesLSUSGS4000-0.07 Unspecified NONE
812002-10-10 09:34EDTYesLSUSGS3990-0.06 Unspecified NONE
802002-10-10 09:29EDTYesLSUSGS3930-0.05 Unspecified NONE
792002-10-10 09:24EDTYesLSUSGS3920-0.04 Unspecified NONE
782002-10-10 09:20EDTYesLSUSGS3830-0.03 Unspecified NONE
102002-07-17 10:02EDTYesLSUSGS3040-1.32 Unspecified NONE
92002-07-17 09:57EDTYesLSUSGS3010-1.31 Unspecified NONE
772002-04-10 10:57EDTYesLSUSGS-923-1.02 Unspecified NONE
762002-04-10 10:51EDTYesLSUSGS-549-1.04 Unspecified NONE
752002-04-10 10:46EDTYesLSUSGS42.0-1.06 Unspecified NONE
742002-04-10 10:42EDTYesLSUSGS458-1.08 Unspecified NONE
732002-04-10 10:36EDTYesLSUSGS827-1.15 Unspecified NONE
722002-04-10 10:32EDTYesLSUSGS1080-1.20 Unspecified NONE
712002-04-10 10:27EDTYesLSUSGS1230-1.27 Unspecified NONE
702002-04-10 10:23EDTYesLSUSGS1480-1.29 Unspecified NONE
692002-04-10 10:18EDTYesLSUSGS1700-1.31 Unspecified NONE
682002-04-10 10:14EDTYesLSUSGS1820-1.33 Unspecified NONE
672002-04-10 10:09EDTYesLSUSGS1970-1.36 Unspecified NONE
662002-04-10 10:03EDTYesLSUSGS2190-1.39 Unspecified NONE
652002-04-10 09:58EDTYesLSUSGS2320-1.42 Unspecified NONE
642002-01-17 16:01ESTYesLSUSGS-3790-0.41 Unspecified NONE
632002-01-17 15:55ESTYesLSUSGS-3780-0.43 Unspecified NONE
622002-01-17 15:48ESTYesLSUSGS-3710-0.45 Unspecified NONE
612002-01-17 15:43ESTYesLSUSGS-3720-0.47 Unspecified NONE
602002-01-17 15:39ESTYesLSUSGS-3610-0.49 Unspecified NONE
592002-01-17 15:32ESTYesLSUSGS-3630-0.51 Unspecified NONE
582002-01-17 15:27ESTYesLSUSGS-3540-0.54 Unspecified NONE
572002-01-17 15:23ESTYesLSUSGS-3530-0.56 Unspecified NONE
562002-01-17 15:19ESTYesLSUSGS-3380-0.58 Unspecified NONE
552002-01-17 15:15ESTYesLSUSGS-3400-0.59 Unspecified NONE
542002-01-17 15:10ESTYesLSUSGS-3340-0.61 Unspecified NONE
532002-01-17 15:05ESTYesLSUSGS-3330-0.63 Unspecified NONE
522002-01-17 15:00ESTYesLSUSGS-3220-0.65 Unspecified NONE
512002-01-17 14:56ESTYesLSUSGS-3230-0.66 Unspecified NONE
502002-01-17 14:52ESTYesLSUSGS-3110-0.68 Unspecified NONE
492002-01-17 14:48ESTYesLSUSGS-3060-0.69 Unspecified NONE
482002-01-17 14:44ESTYesLSUSGS-2900-0.70 Unspecified NONE
472002-01-17 14:39ESTYesLSUSGS-2760-0.71 Unspecified NONE
462002-01-17 14:35ESTYesLSUSGS-2690-0.73 Unspecified NONE
452002-01-17 14:31ESTYesLSUSGS-2630-0.75 Unspecified NONE
442002-01-17 14:24ESTYesLSUSGS-2340-0.83 Unspecified NONE
432002-01-17 14:10ESTYesLSUSGS-2260-0.84 Unspecified NONE
422002-01-17 14:01ESTYesLSUSGS-2200-0.91 Unspecified NONE
412002-01-17 13:57ESTYesLSUSGS-2130-0.94 Unspecified NONE
402002-01-17 13:53ESTYesLSUSGS-2080-0.96 Unspecified NONE
392002-01-17 13:48ESTYesLSUSGS-1890-0.98 Unspecified NONE
382002-01-17 13:44ESTYesLSUSGS-1620-1.01 Unspecified NONE
372002-01-17 13:33ESTYesLSUSGS-758-1.07 Unspecified NONE
362002-01-17 13:28ESTYesLSUSGS-335-1.09 Unspecified NONE
352002-01-17 13:20ESTYesLSUSGS238-1.15 Unspecified NONE
342002-01-17 13:16ESTYesLSUSGS644-1.20 Unspecified NONE
332002-01-17 13:13ESTYesLSUSGS878-1.22 Unspecified NONE
322002-01-17 13:09ESTYesLSUSGS1150-1.26 Unspecified NONE
312002-01-17 13:05ESTYesLSUSGS1310-1.29 Unspecified NONE
302002-01-17 13:01ESTYesLSUSGS1520-1.32 Unspecified NONE
292002-01-17 12:58ESTYesLSUSGS1560-1.35 Unspecified NONE
282002-01-17 12:54ESTYesLSUSGS1740-1.37 Unspecified NONE
272002-01-17 12:51ESTYesLSUSGS1830-1.39 Unspecified NONE
262002-01-17 12:47ESTYesLSUSGS2000-1.42 Unspecified NONE
252002-01-17 12:44ESTYesLSUSGS2100-1.43 Unspecified NONE
242002-01-17 12:39ESTYesLSUSGS2310-1.46 Unspecified NONE
232002-01-17 12:36ESTYesLSUSGS2200-1.48 Unspecified NONE
222002-01-17 12:32ESTYesLSUSGS2450-1.51 Unspecified NONE
212002-01-17 12:28ESTYesLSUSGS2540-1.52 Unspecified NONE
202002-01-17 12:24ESTYesLSUSGS2630-1.54 Unspecified NONE
192002-01-17 12:20ESTYesLSUSGS2710-1.55 Unspecified NONE
182002-01-17 12:16ESTYesLSUSGS2750-1.56 Unspecified NONE
172002-01-17 11:57ESTYesLSUSGS2820-1.57 Unspecified NONE
162002-01-17 11:53ESTYesLSUSGS2870-1.57 Unspecified NONE
152002-01-17 11:24ESTYesLSUSGS2940-1.52 Unspecified NONE
142002-01-17 11:19ESTYesLSUSGS3030-1.51 Unspecified NONE
132002-01-17 11:11ESTYesLSUSGS3130-1.50 Unspecified NONE
122002-01-17 10:42ESTYesLSUSGS3000-1.43 Unspecified NONE
112002-01-17 10:35ESTYesLSUSGS2950-1.41 Unspecified NONE
82002-01-17 09:42ESTYesLSUSGS3000-1.27 Unspecified NONE
72002-01-17 09:37ESTYesLSUSGS3160-1.25 Unspecified NONE
62002-01-17 09:30ESTYesLSUSGS2980-1.23 Unspecified NONE
52002-01-17 09:27ESTYesLSUSGS2890-1.22 Unspecified NONE
42001-06-19 11:12EDTYesMSUSGS-3480-0.59 Unspecified NONE
32001-06-19 11:07EDTYesMSUSGS-3350-0.62 Unspecified NONE
22001-06-19 11:01EDTYesMSUSGS-3180-0.64 Unspecified NONE
12001-06-19 10:52EDTYesMSUSGS-3240-0.67 Unspecified NONE